sensor_id;sensor_type;location;lat;lon;timestamp;temperature;humidity
39899;DHT22;25571;47.876;10.642;2022-07-23T00:01:20;23.00;88.80
39899;DHT22;25571;47.876;10.642;2022-07-23T00:03:46;23.00;86.80
39899;DHT22;25571;47.876;10.642;2022-07-23T00:06:11;22.90;87.80
39899;DHT22;25571;47.876;10.642;2022-07-23T00:08:37;22.90;90.00
39899;DHT22;25571;47.876;10.642;2022-07-23T00:11:02;22.90;90.30
39899;DHT22;25571;47.876;10.642;2022-07-23T00:13:28;22.90;90.30
39899;DHT22;25571;47.876;10.642;2022-07-23T00:15:53;22.90;90.20
39899;DHT22;25571;47.876;10.642;2022-07-23T00:18:19;22.80;90.60
39899;DHT22;25571;47.876;10.642;2022-07-23T00:20:44;22.80;86.40
39899;DHT22;25571;47.876;10.642;2022-07-23T00:23:10;22.80;81.80
39899;DHT22;25571;47.876;10.642;2022-07-23T00:25:35;22.70;78.80
39899;DHT22;25571;47.876;10.642;2022-07-23T00:28:01;22.30;78.50
39899;DHT22;25571;47.876;10.642;2022-07-23T00:30:27;21.90;83.20
39899;DHT22;25571;47.876;10.642;2022-07-23T00:32:58;21.70;84.70
39899;DHT22;25571;47.876;10.642;2022-07-23T00:35:24;21.50;84.90
39899;DHT22;25571;47.876;10.642;2022-07-23T00:37:50;21.00;83.30
39899;DHT22;25571;47.876;10.642;2022-07-23T00:40:15;20.60;84.90
39899;DHT22;25571;47.876;10.642;2022-07-23T00:42:41;20.10;89.20
39899;DHT22;25571;47.876;10.642;2022-07-23T00:45:06;19.90;90.70
39899;DHT22;25571;47.876;10.642;2022-07-23T00:47:33;19.70;91.90
39899;DHT22;25571;47.876;10.642;2022-07-23T00:49:58;19.60;94.20
39899;DHT22;25571;47.876;10.642;2022-07-23T00:52:24;19.40;95.20
39899;DHT22;25571;47.876;10.642;2022-07-23T00:54:49;19.30;95.70
39899;DHT22;25571;47.876;10.642;2022-07-23T00:57:15;19.50;95.70
39899;DHT22;25571;47.876;10.642;2022-07-23T00:59:40;19.50;95.30
39899;DHT22;25571;47.876;10.642;2022-07-23T01:02:06;19.50;95.80
39899;DHT22;25571;47.876;10.642;2022-07-23T01:04:32;19.50;96.20
39899;DHT22;25571;47.876;10.642;2022-07-23T01:06:57;19.50;96.20
39899;DHT22;25571;47.876;10.642;2022-07-23T01:09:23;19.50;96.40
39899;DHT22;25571;47.876;10.642;2022-07-23T01:11:48;19.50;96.50
39899;DHT22;25571;47.876;10.642;2022-07-23T01:14:16;19.60;96.70
39899;DHT22;25571;47.876;10.642;2022-07-23T01:16:42;19.60;95.90
39899;DHT22;25571;47.876;10.642;2022-07-23T01:19:08;19.70;95.00
39899;DHT22;25571;47.876;10.642;2022-07-23T01:21:38;19.80;96.30
39899;DHT22;25571;47.876;10.642;2022-07-23T01:24:03;19.90;97.40
39899;DHT22;25571;47.876;10.642;2022-07-23T01:26:29;19.90;97.60
39899;DHT22;25571;47.876;10.642;2022-07-23T01:28:55;19.80;98.20
39899;DHT22;25571;47.876;10.642;2022-07-23T01:31:20;19.80;98.00
39899;DHT22;25571;47.876;10.642;2022-07-23T01:33:46;19.80;98.10
39899;DHT22;25571;47.876;10.642;2022-07-23T01:36:11;19.80;98.10
39899;DHT22;25571;47.876;10.642;2022-07-23T01:38:37;19.50;99.90
39899;DHT22;25571;47.876;10.642;2022-07-23T01:41:02;19.50;99.90
39899;DHT22;25571;47.876;10.642;2022-07-23T01:43:28;19.60;99.90
39899;DHT22;25571;47.876;10.642;2022-07-23T01:45:53;19.60;99.90
39899;DHT22;25571;47.876;10.642;2022-07-23T01:48:19;19.60;99.90
39899;DHT22;25571;47.876;10.642;2022-07-23T01:50:45;19.60;99.90
39899;DHT22;25571;47.876;10.642;2022-07-23T01:53:11;19.60;99.90
39899;DHT22;25571;47.876;10.642;2022-07-23T01:55:37;19.40;99.90
39899;DHT22;25571;47.876;10.642;2022-07-23T01:58:02;19.40;99.90
39899;DHT22;25571;47.876;10.642;2022-07-23T02:00:28;19.50;99.90
39899;DHT22;25571;47.876;10.642;2022-07-23T02:02:53;19.50;99.60
39899;DHT22;25571;47.876;10.642;2022-07-23T02:05:19;19.50;99.90
39899;DHT22;25571;47.876;10.642;2022-07-23T02:07:44;19.50;99.90
39899;DHT22;25571;47.876;10.642;2022-07-23T02:10:10;19.40;99.90
39899;DHT22;25571;47.876;10.642;2022-07-23T02:12:35;19.40;99.90
39899;DHT22;25571;47.876;10.642;2022-07-23T02:15:01;19.40;99.90
39899;DHT22;25571;47.876;10.642;2022-07-23T02:17:26;19.50;99.90
39899;DHT22;25571;47.876;10.642;2022-07-23T02:19:52;19.50;99.90
39899;DHT22;25571;47.876;10.642;2022-07-23T02:22:17;19.30;99.90
39899;DHT22;25571;47.876;10.642;2022-07-23T02:24:43;19.10;99.90
39899;DHT22;25571;47.876;10.642;2022-07-23T02:27:08;19.00;99.90
39899;DHT22;25571;47.876;10.642;2022-07-23T02:29:34;18.90;99.90
39899;DHT22;25571;47.876;10.642;2022-07-23T02:31:59;18.70;99.90
39899;DHT22;25571;47.876;10.642;2022-07-23T02:34:25;18.50;99.90
39899;DHT22;25571;47.876;10.642;2022-07-23T02:36:50;18.10;99.90
39899;DHT22;25571;47.876;10.642;2022-07-23T02:39:16;17.90;99.90
39899;DHT22;25571;47.876;10.642;2022-07-23T02:41:41;17.70;99.90
39899;DHT22;25571;47.876;10.642;2022-07-23T02:44:07;17.60;99.90
39899;DHT22;25571;47.876;10.642;2022-07-23T02:46:32;17.50;99.90
39899;DHT22;25571;47.876;10.642;2022-07-23T02:48:57;17.50;99.90
39899;DHT22;25571;47.876;10.642;2022-07-23T02:51:23;17.70;99.90
39899;DHT22;25571;47.876;10.642;2022-07-23T02:53:48;17.80;99.90
39899;DHT22;25571;47.876;10.642;2022-07-23T02:56:14;18.00;99.90
39899;DHT22;25571;47.876;10.642;2022-07-23T02:58:39;18.00;99.90
39899;DHT22;25571;47.876;10.642;2022-07-23T03:01:05;18.20;99.90
39899;DHT22;25571;47.876;10.642;2022-07-23T03:03:30;18.20;99.90
39899;DHT22;25571;47.876;10.642;2022-07-23T03:05:56;18.30;99.90
39899;DHT22;25571;47.876;10.642;2022-07-23T03:08:21;18.20;99.90
39899;DHT22;25571;47.876;10.642;2022-07-23T03:10:47;18.20;99.90
39899;DHT22;25571;47.876;10.642;2022-07-23T03:13:12;18.40;99.90
39899;DHT22;25571;47.876;10.642;2022-07-23T03:15:38;18.40;99.90
39899;DHT22;25571;47.876;10.642;2022-07-23T03:18:03;18.20;99.90
39899;DHT22;25571;47.876;10.642;2022-07-23T03:20:29;18.40;99.90
39899;DHT22;25571;47.876;10.642;2022-07-23T03:22:54;18.40;99.90
39899;DHT22;25571;47.876;10.642;2022-07-23T03:25:20;18.40;99.90
39899;DHT22;25571;47.876;10.642;2022-07-23T03:27:45;18.50;99.90
39899;DHT22;25571;47.876;10.642;2022-07-23T03:30:11;18.40;99.90
39899;DHT22;25571;47.876;10.642;2022-07-23T03:32:37;18.50;99.90
39899;DHT22;25571;47.876;10.642;2022-07-23T03:35:02;18.50;99.90
39899;DHT22;25571;47.876;10.642;2022-07-23T03:37:28;18.60;99.90
39899;DHT22;25571;47.876;10.642;2022-07-23T03:39:53;18.60;99.90
39899;DHT22;25571;47.876;10.642;2022-07-23T03:42:19;18.60;99.90
39899;DHT22;25571;47.876;10.642;2022-07-23T03:44:44;18.60;99.90
39899;DHT22;25571;47.876;10.642;2022-07-23T03:47:10;18.60;99.90
39899;DHT22;25571;47.876;10.642;2022-07-23T03:49:35;18.70;99.90
39899;DHT22;25571;47.876;10.642;2022-07-23T03:52:01;18.60;99.90
39899;DHT22;25571;47.876;10.642;2022-07-23T03:54:26;18.60;99.90
39899;DHT22;25571;47.876;10.642;2022-07-23T03:56:52;18.50;99.90
39899;DHT22;25571;47.876;10.642;2022-07-23T03:59:17;18.20;99.90
39899;DHT22;25571;47.876;10.642;2022-07-23T04:01:43;18.20;99.90
39899;DHT22;25571;47.876;10.642;2022-07-23T04:04:08;18.10;99.90
39899;DHT22;25571;47.876;10.642;2022-07-23T04:06:34;18.20;99.90
39899;DHT22;25571;47.876;10.642;2022-07-23T04:09:00;18.50;99.90
39899;DHT22;25571;47.876;10.642;2022-07-23T04:11:26;18.50;99.90
39899;DHT22;25571;47.876;10.642;2022-07-23T04:13:51;18.50;99.90
39899;DHT22;25571;47.876;10.642;2022-07-23T04:16:17;18.60;99.90
39899;DHT22;25571;47.876;10.642;2022-07-23T04:18:42;18.70;99.90
39899;DHT22;25571;47.876;10.642;2022-07-23T04:21:08;18.70;99.90
39899;DHT22;25571;47.876;10.642;2022-07-23T04:23:33;18.80;99.90
39899;DHT22;25571;47.876;10.642;2022-07-23T04:25:59;18.80;99.90
39899;DHT22;25571;47.876;10.642;2022-07-23T04:28:24;18.80;99.90
39899;DHT22;25571;47.876;10.642;2022-07-23T04:30:50;18.70;99.90
39899;DHT22;25571;47.876;10.642;2022-07-23T04:33:15;18.70;99.90
39899;DHT22;25571;47.876;10.642;2022-07-23T04:35:41;18.80;99.90
39899;DHT22;25571;47.876;10.642;2022-07-23T04:38:06;18.90;99.90
39899;DHT22;25571;47.876;10.642;2022-07-23T04:40:32;18.90;99.90
39899;DHT22;25571;47.876;10.642;2022-07-23T04:42:57;18.90;99.90
39899;DHT22;25571;47.876;10.642;2022-07-23T04:45:23;18.80;99.90
39899;DHT22;25571;47.876;10.642;2022-07-23T04:47:51;18.90;99.90
39899;DHT22;25571;47.876;10.642;2022-07-23T04:50:16;18.90;99.90
39899;DHT22;25571;47.876;10.642;2022-07-23T04:52:49;18.80;99.90
39899;DHT22;25571;47.876;10.642;2022-07-23T04:55:15;18.70;99.90
39899;DHT22;25571;47.876;10.642;2022-07-23T04:57:40;18.60;99.90
39899;DHT22;25571;47.876;10.642;2022-07-23T05:00:06;18.50;99.90
39899;DHT22;25571;47.876;10.642;2022-07-23T05:02:32;18.50;99.90
39899;DHT22;25571;47.876;10.642;2022-07-23T05:04:58;18.40;99.90
39899;DHT22;25571;47.876;10.642;2022-07-23T05:07:23;18.60;99.90
39899;DHT22;25571;47.876;10.642;2022-07-23T05:09:49;18.60;99.90
39899;DHT22;25571;47.876;10.642;2022-07-23T05:12:14;18.60;99.90
39899;DHT22;25571;47.876;10.642;2022-07-23T05:14:40;18.60;99.90
39899;DHT22;25571;47.876;10.642;2022-07-23T05:17:06;18.60;99.90
39899;DHT22;25571;47.876;10.642;2022-07-23T05:19:33;18.50;99.90
39899;DHT22;25571;47.876;10.642;2022-07-23T05:21:59;18.50;99.90
39899;DHT22;25571;47.876;10.642;2022-07-23T05:24:24;18.60;99.90
39899;DHT22;25571;47.876;10.642;2022-07-23T05:26:50;18.70;99.90
39899;DHT22;25571;47.876;10.642;2022-07-23T05:29:15;18.70;99.90
39899;DHT22;25571;47.876;10.642;2022-07-23T05:31:41;18.80;99.90
39899;DHT22;25571;47.876;10.642;2022-07-23T05:34:06;18.80;99.90
39899;DHT22;25571;47.876;10.642;2022-07-23T05:36:31;18.80;99.90
39899;DHT22;25571;47.876;10.642;2022-07-23T05:38:57;18.80;99.90
39899;DHT22;25571;47.876;10.642;2022-07-23T05:41:23;18.90;99.90
39899;DHT22;25571;47.876;10.642;2022-07-23T05:43:48;18.90;99.90
39899;DHT22;25571;47.876;10.642;2022-07-23T05:46:14;18.80;99.90
39899;DHT22;25571;47.876;10.642;2022-07-23T05:48:39;18.80;99.90
39899;DHT22;25571;47.876;10.642;2022-07-23T05:51:05;18.70;99.90
39899;DHT22;25571;47.876;10.642;2022-07-23T05:53:32;18.60;99.90
39899;DHT22;25571;47.876;10.642;2022-07-23T05:55:57;18.60;99.90
39899;DHT22;25571;47.876;10.642;2022-07-23T05:58:23;18.70;99.90
39899;DHT22;25571;47.876;10.642;2022-07-23T06:00:48;18.70;99.90
39899;DHT22;25571;47.876;10.642;2022-07-23T06:03:14;18.70;99.90
39899;DHT22;25571;47.876;10.642;2022-07-23T06:05:40;18.80;99.90
39899;DHT22;25571;47.876;10.642;2022-07-23T06:08:05;18.70;99.90
39899;DHT22;25571;47.876;10.642;2022-07-23T06:10:31;18.70;99.90
39899;DHT22;25571;47.876;10.642;2022-07-23T06:12:56;18.70;99.90
39899;DHT22;25571;47.876;10.642;2022-07-23T06:15:22;18.70;99.90
39899;DHT22;25571;47.876;10.642;2022-07-23T06:17:47;18.80;99.90
39899;DHT22;25571;47.876;10.642;2022-07-23T06:20:13;18.90;99.90
39899;DHT22;25571;47.876;10.642;2022-07-23T06:22:38;19.00;99.90
39899;DHT22;25571;47.876;10.642;2022-07-23T06:25:04;19.00;99.90
39899;DHT22;25571;47.876;10.642;2022-07-23T06:27:30;19.00;99.90
39899;DHT22;25571;47.876;10.642;2022-07-23T06:29:55;19.00;99.90
39899;DHT22;25571;47.876;10.642;2022-07-23T06:32:21;19.00;99.90
39899;DHT22;25571;47.876;10.642;2022-07-23T06:34:46;19.00;99.90
39899;DHT22;25571;47.876;10.642;2022-07-23T06:37:12;19.00;99.90
39899;DHT22;25571;47.876;10.642;2022-07-23T06:39:37;19.00;99.90
39899;DHT22;25571;47.876;10.642;2022-07-23T06:42:03;19.00;99.90
39899;DHT22;25571;47.876;10.642;2022-07-23T06:44:28;19.10;99.90
39899;DHT22;25571;47.876;10.642;2022-07-23T06:46:54;19.20;99.90
39899;DHT22;25571;47.876;10.642;2022-07-23T06:49:19;19.30;99.90
39899;DHT22;25571;47.876;10.642;2022-07-23T06:51:45;19.40;99.90
39899;DHT22;25571;47.876;10.642;2022-07-23T06:54:10;19.40;99.90
39899;DHT22;25571;47.876;10.642;2022-07-23T06:56:36;19.40;99.90
39899;DHT22;25571;47.876;10.642;2022-07-23T06:59:02;19.50;99.90
39899;DHT22;25571;47.876;10.642;2022-07-23T07:01:27;19.60;99.90
39899;DHT22;25571;47.876;10.642;2022-07-23T07:03:53;19.70;99.90
39899;DHT22;25571;47.876;10.642;2022-07-23T07:06:18;19.50;99.90
39899;DHT22;25571;47.876;10.642;2022-07-23T07:08:44;19.50;99.90
39899;DHT22;25571;47.876;10.642;2022-07-23T07:11:10;19.50;99.90
39899;DHT22;25571;47.876;10.642;2022-07-23T07:13:35;19.60;99.90
39899;DHT22;25571;47.876;10.642;2022-07-23T07:16:01;19.50;99.90
39899;DHT22;25571;47.876;10.642;2022-07-23T07:18:27;19.40;99.90
39899;DHT22;25571;47.876;10.642;2022-07-23T07:20:52;19.50;99.90
39899;DHT22;25571;47.876;10.642;2022-07-23T07:23:18;19.50;99.90
39899;DHT22;25571;47.876;10.642;2022-07-23T07:25:43;19.60;99.90
39899;DHT22;25571;47.876;10.642;2022-07-23T07:28:09;19.60;99.90
39899;DHT22;25571;47.876;10.642;2022-07-23T07:30:34;19.70;99.90
39899;DHT22;25571;47.876;10.642;2022-07-23T07:33:00;19.70;99.90
39899;DHT22;25571;47.876;10.642;2022-07-23T07:35:26;19.80;99.90
39899;DHT22;25571;47.876;10.642;2022-07-23T07:37:51;19.80;99.90
39899;DHT22;25571;47.876;10.642;2022-07-23T07:40:18;19.90;99.90
39899;DHT22;25571;47.876;10.642;2022-07-23T07:42:44;19.90;99.90
39899;DHT22;25571;47.876;10.642;2022-07-23T07:45:09;19.90;99.90
39899;DHT22;25571;47.876;10.642;2022-07-23T07:47:35;19.90;99.90
39899;DHT22;25571;47.876;10.642;2022-07-23T07:50:00;19.80;99.90
39899;DHT22;25571;47.876;10.642;2022-07-23T07:52:26;19.90;99.90
39899;DHT22;25571;47.876;10.642;2022-07-23T07:54:52;19.90;99.90
39899;DHT22;25571;47.876;10.642;2022-07-23T07:57:17;19.90;99.90
39899;DHT22;25571;47.876;10.642;2022-07-23T07:59:42;19.90;99.90
39899;DHT22;25571;47.876;10.642;2022-07-23T08:02:08;19.90;99.90
39899;DHT22;25571;47.876;10.642;2022-07-23T08:04:34;19.90;99.90
39899;DHT22;25571;47.876;10.642;2022-07-23T08:06:59;20.00;99.90
39899;DHT22;25571;47.876;10.642;2022-07-23T08:09:24;20.00;99.90
39899;DHT22;25571;47.876;10.642;2022-07-23T08:11:50;20.00;99.90
39899;DHT22;25571;47.876;10.642;2022-07-23T08:14:17;20.00;99.90
39899;DHT22;25571;47.876;10.642;2022-07-23T08:16:42;20.00;99.90
39899;DHT22;25571;47.876;10.642;2022-07-23T08:19:08;20.10;99.90
39899;DHT22;25571;47.876;10.642;2022-07-23T08:21:34;20.10;99.90
39899;DHT22;25571;47.876;10.642;2022-07-23T08:23:59;20.20;99.90
39899;DHT22;25571;47.876;10.642;2022-07-23T08:26:24;20.30;99.90
39899;DHT22;25571;47.876;10.642;2022-07-23T08:28:50;20.30;99.90
39899;DHT22;25571;47.876;10.642;2022-07-23T08:31:15;20.30;99.90
39899;DHT22;25571;47.876;10.642;2022-07-23T08:33:42;20.30;99.90
39899;DHT22;25571;47.876;10.642;2022-07-23T08:36:08;20.40;99.90
39899;DHT22;25571;47.876;10.642;2022-07-23T08:38:33;20.50;99.90
39899;DHT22;25571;47.876;10.642;2022-07-23T08:41:00;20.60;99.90
39899;DHT22;25571;47.876;10.642;2022-07-23T08:43:27;20.80;99.90
39899;DHT22;25571;47.876;10.642;2022-07-23T08:45:53;20.90;99.90
39899;DHT22;25571;47.876;10.642;2022-07-23T08:48:22;21.00;99.90
39899;DHT22;25571;47.876;10.642;2022-07-23T08:50:49;21.00;99.90
39899;DHT22;25571;47.876;10.642;2022-07-23T08:53:16;21.10;99.90
39899;DHT22;25571;47.876;10.642;2022-07-23T08:55:46;21.20;99.90
39899;DHT22;25571;47.876;10.642;2022-07-23T08:58:12;21.30;99.90
39899;DHT22;25571;47.876;10.642;2022-07-23T09:00:38;21.30;99.90
39899;DHT22;25571;47.876;10.642;2022-07-23T09:03:03;21.30;99.90
39899;DHT22;25571;47.876;10.642;2022-07-23T09:05:29;21.40;99.90
39899;DHT22;25571;47.876;10.642;2022-07-23T09:08:07;21.40;99.90
39899;DHT22;25571;47.876;10.642;2022-07-23T09:10:49;21.40;99.90
39899;DHT22;25571;47.876;10.642;2022-07-23T09:13:26;21.50;99.90
39899;DHT22;25571;47.876;10.642;2022-07-23T09:15:53;21.60;99.90
39899;DHT22;25571;47.876;10.642;2022-07-23T09:18:18;21.60;99.90
39899;DHT22;25571;47.876;10.642;2022-07-23T09:20:44;21.70;99.90
39899;DHT22;25571;47.876;10.642;2022-07-23T09:23:10;21.80;99.90
39899;DHT22;25571;47.876;10.642;2022-07-23T09:25:35;21.80;99.90
39899;DHT22;25571;47.876;10.642;2022-07-23T09:28:01;21.90;99.90
39899;DHT22;25571;47.876;10.642;2022-07-23T09:30:32;22.00;99.90
39899;DHT22;25571;47.876;10.642;2022-07-23T09:33:06;22.00;99.90
39899;DHT22;25571;47.876;10.642;2022-07-23T09:35:55;22.00;99.90
39899;DHT22;25571;47.876;10.642;2022-07-23T09:38:18;22.10;99.90
39899;DHT22;25571;47.876;10.642;2022-07-23T09:40:44;22.20;99.90
39899;DHT22;25571;47.876;10.642;2022-07-23T09:43:11;22.20;99.90
39899;DHT22;25571;47.876;10.642;2022-07-23T09:45:36;22.20;99.90
39899;DHT22;25571;47.876;10.642;2022-07-23T09:48:14;22.20;99.90
39899;DHT22;25571;47.876;10.642;2022-07-23T09:50:40;22.20;98.10
39899;DHT22;25571;47.876;10.642;2022-07-23T09:53:06;22.20;97.30
39899;DHT22;25571;47.876;10.642;2022-07-23T09:55:32;22.30;96.90
39899;DHT22;25571;47.876;10.642;2022-07-23T09:58:07;22.20;96.80
39899;DHT22;25571;47.876;10.642;2022-07-23T10:00:38;22.20;96.60
39899;DHT22;25571;47.876;10.642;2022-07-23T10:03:05;22.20;97.30
39899;DHT22;25571;47.876;10.642;2022-07-23T10:05:31;22.30;97.20
39899;DHT22;25571;47.876;10.642;2022-07-23T10:07:56;22.20;97.20
39899;DHT22;25571;47.876;10.642;2022-07-23T10:10:26;22.30;97.00
39899;DHT22;25571;47.876;10.642;2022-07-23T10:12:52;22.30;96.00
39899;DHT22;25571;47.876;10.642;2022-07-23T10:15:36;22.30;97.40
39899;DHT22;25571;47.876;10.642;2022-07-23T10:18:02;22.30;97.30
39899;DHT22;25571;47.876;10.642;2022-07-23T10:20:27;22.40;97.00
39899;DHT22;25571;47.876;10.642;2022-07-23T10:23:17;22.40;98.10
39899;DHT22;25571;47.876;10.642;2022-07-23T10:25:46;22.40;98.30
39899;DHT22;25571;47.876;10.642;2022-07-23T10:34:02;22.30;98.00
39899;DHT22;25571;47.876;10.642;2022-07-23T10:36:44;22.30;98.60
39899;DHT22;25571;47.876;10.642;2022-07-23T10:41:41;22.30;96.20
39899;DHT22;25571;47.876;10.642;2022-07-23T10:44:14;22.20;96.70
39899;DHT22;25571;47.876;10.642;2022-07-23T10:49:41;22.20;97.10
39899;DHT22;25571;47.876;10.642;2022-07-23T10:54:39;22.30;97.40
39899;DHT22;25571;47.876;10.642;2022-07-23T10:57:05;22.30;97.50
39899;DHT22;25571;47.876;10.642;2022-07-23T10:59:32;22.20;96.20
39899;DHT22;25571;47.876;10.642;2022-07-23T11:02:21;22.20;96.70
39899;DHT22;25571;47.876;10.642;2022-07-23T11:04:48;22.10;95.50
39899;DHT22;25571;47.876;10.642;2022-07-23T11:07:15;22.10;96.70
39899;DHT22;25571;47.876;10.642;2022-07-23T11:09:41;22.20;96.90
39899;DHT22;25571;47.876;10.642;2022-07-23T11:17:23;22.20;97.00
39899;DHT22;25571;47.876;10.642;2022-07-23T11:22:37;22.30;96.60
39899;DHT22;25571;47.876;10.642;2022-07-23T11:25:03;22.30;95.00
39899;DHT22;25571;47.876;10.642;2022-07-23T11:27:38;22.30;94.90
39899;DHT22;25571;47.876;10.642;2022-07-23T11:30:05;22.40;95.20
39899;DHT22;25571;47.876;10.642;2022-07-23T11:32:32;22.40;94.80
39899;DHT22;25571;47.876;10.642;2022-07-23T11:34:59;22.50;93.90
39899;DHT22;25571;47.876;10.642;2022-07-23T11:37:35;22.50;94.20
39899;DHT22;25571;47.876;10.642;2022-07-23T11:40:02;22.50;94.30
39899;DHT22;25571;47.876;10.642;2022-07-23T11:42:28;22.50;93.90
39899;DHT22;25571;47.876;10.642;2022-07-23T11:44:53;22.50;93.30
39899;DHT22;25571;47.876;10.642;2022-07-23T11:47:23;22.50;93.20
39899;DHT22;25571;47.876;10.642;2022-07-23T11:49:58;22.50;93.40
39899;DHT22;25571;47.876;10.642;2022-07-23T11:52:25;22.50;93.40
39899;DHT22;25571;47.876;10.642;2022-07-23T11:54:51;22.60;92.90
39899;DHT22;25571;47.876;10.642;2022-07-23T11:57:17;22.50;93.10
39899;DHT22;25571;47.876;10.642;2022-07-23T11:59:43;22.50;92.40
39899;DHT22;25571;47.876;10.642;2022-07-23T12:02:11;22.50;92.80
39899;DHT22;25571;47.876;10.642;2022-07-23T12:04:43;22.50;92.60
39899;DHT22;25571;47.876;10.642;2022-07-23T12:09:56;22.50;92.60
39899;DHT22;25571;47.876;10.642;2022-07-23T12:12:22;22.50;93.00
39899;DHT22;25571;47.876;10.642;2022-07-23T12:14:48;22.40;93.00
39899;DHT22;25571;47.876;10.642;2022-07-23T12:17:14;22.40;93.00
39899;DHT22;25571;47.876;10.642;2022-07-23T12:19:39;22.50;92.90
39899;DHT22;25571;47.876;10.642;2022-07-23T12:22:05;22.50;92.70
39899;DHT22;25571;47.876;10.642;2022-07-23T12:24:31;22.40;93.10
39899;DHT22;25571;47.876;10.642;2022-07-23T12:27:11;22.50;93.10
39899;DHT22;25571;47.876;10.642;2022-07-23T12:29:38;22.50;92.80
39899;DHT22;25571;47.876;10.642;2022-07-23T12:32:16;22.60;92.50
39899;DHT22;25571;47.876;10.642;2022-07-23T12:34:42;22.60;92.10
39899;DHT22;25571;47.876;10.642;2022-07-23T12:37:07;22.60;92.20
39899;DHT22;25571;47.876;10.642;2022-07-23T12:39:33;22.60;92.60
39899;DHT22;25571;47.876;10.642;2022-07-23T12:41:58;22.60;92.80
39899;DHT22;25571;47.876;10.642;2022-07-23T12:44:23;22.70;92.50
39899;DHT22;25571;47.876;10.642;2022-07-23T12:46:50;22.60;92.00
39899;DHT22;25571;47.876;10.642;2022-07-23T12:49:25;22.50;92.00
39899;DHT22;25571;47.876;10.642;2022-07-23T12:51:51;22.60;92.20
39899;DHT22;25571;47.876;10.642;2022-07-23T12:54:17;22.50;92.10
39899;DHT22;25571;47.876;10.642;2022-07-23T12:56:45;22.50;92.30
39899;DHT22;25571;47.876;10.642;2022-07-23T12:59:11;22.60;92.50
39899;DHT22;25571;47.876;10.642;2022-07-23T13:01:39;22.50;91.70
39899;DHT22;25571;47.876;10.642;2022-07-23T13:04:06;22.50;91.40
39899;DHT22;25571;47.876;10.642;2022-07-23T13:06:38;22.40;91.80
39899;DHT22;25571;47.876;10.642;2022-07-23T13:09:05;22.40;91.60
39899;DHT22;25571;47.876;10.642;2022-07-23T13:11:31;22.40;92.00
39899;DHT22;25571;47.876;10.642;2022-07-23T13:13:57;22.30;92.30
39899;DHT22;25571;47.876;10.642;2022-07-23T13:16:22;22.30;91.70
39899;DHT22;25571;47.876;10.642;2022-07-23T13:18:48;22.30;92.30
39899;DHT22;25571;47.876;10.642;2022-07-23T13:21:13;22.20;92.00
39899;DHT22;25571;47.876;10.642;2022-07-23T13:23:39;22.20;92.40
39899;DHT22;25571;47.876;10.642;2022-07-23T13:26:04;22.20;92.30
39899;DHT22;25571;47.876;10.642;2022-07-23T13:28:30;22.20;92.80
39899;DHT22;25571;47.876;10.642;2022-07-23T13:30:55;22.10;92.60
39899;DHT22;25571;47.876;10.642;2022-07-23T13:33:22;22.10;93.00
39899;DHT22;25571;47.876;10.642;2022-07-23T13:35:49;22.10;93.40
39899;DHT22;25571;47.876;10.642;2022-07-23T13:38:14;22.10;92.50
39899;DHT22;25571;47.876;10.642;2022-07-23T13:40:41;22.10;92.90
39899;DHT22;25571;47.876;10.642;2022-07-23T13:43:08;22.00;93.20
39899;DHT22;25571;47.876;10.642;2022-07-23T13:45:34;22.00;93.10
39899;DHT22;25571;47.876;10.642;2022-07-23T13:47:59;22.00;94.00
39899;DHT22;25571;47.876;10.642;2022-07-23T13:50:25;22.00;93.30
39899;DHT22;25571;47.876;10.642;2022-07-23T13:52:50;22.00;94.10
39899;DHT22;25571;47.876;10.642;2022-07-23T13:55:16;21.80;94.50
39899;DHT22;25571;47.876;10.642;2022-07-23T13:57:41;21.80;93.90
39899;DHT22;25571;47.876;10.642;2022-07-23T14:00:07;21.80;94.60
39899;DHT22;25571;47.876;10.642;2022-07-23T14:02:35;21.90;94.20
39899;DHT22;25571;47.876;10.642;2022-07-23T14:05:00;21.90;94.30
39899;DHT22;25571;47.876;10.642;2022-07-23T14:07:26;21.80;94.10
39899;DHT22;25571;47.876;10.642;2022-07-23T14:09:51;21.80;94.20
39899;DHT22;25571;47.876;10.642;2022-07-23T14:12:17;22.00;94.40
39899;DHT22;25571;47.876;10.642;2022-07-23T14:14:42;22.00;93.40
39899;DHT22;25571;47.876;10.642;2022-07-23T14:17:08;22.10;93.40
39899;DHT22;25571;47.876;10.642;2022-07-23T14:19:34;22.20;93.90
39899;DHT22;25571;47.876;10.642;2022-07-23T14:21:59;22.40;93.40
39899;DHT22;25571;47.876;10.642;2022-07-23T14:24:25;22.50;93.50
39899;DHT22;25571;47.876;10.642;2022-07-23T14:26:50;22.60;93.10
39899;DHT22;25571;47.876;10.642;2022-07-23T14:29:16;22.60;92.30
39899;DHT22;25571;47.876;10.642;2022-07-23T14:31:42;22.70;92.50
39899;DHT22;25571;47.876;10.642;2022-07-23T14:34:07;22.60;92.90
39899;DHT22;25571;47.876;10.642;2022-07-23T14:36:33;22.70;92.80
39899;DHT22;25571;47.876;10.642;2022-07-23T14:38:58;22.90;92.30
39899;DHT22;25571;47.876;10.642;2022-07-23T14:41:24;23.00;91.40
39899;DHT22;25571;47.876;10.642;2022-07-23T14:43:49;23.20;90.50
39899;DHT22;25571;47.876;10.642;2022-07-23T14:46:15;23.40;88.90
39899;DHT22;25571;47.876;10.642;2022-07-23T14:48:40;23.50;88.70
39899;DHT22;25571;47.876;10.642;2022-07-23T14:51:06;23.60;88.90
39899;DHT22;25571;47.876;10.642;2022-07-23T14:53:31;23.70;86.60
39899;DHT22;25571;47.876;10.642;2022-07-23T14:55:57;23.80;87.30
39899;DHT22;25571;47.876;10.642;2022-07-23T14:58:23;23.90;84.70
39899;DHT22;25571;47.876;10.642;2022-07-23T15:00:48;24.00;85.20
39899;DHT22;25571;47.876;10.642;2022-07-23T15:03:14;24.20;84.20
39899;DHT22;25571;47.876;10.642;2022-07-23T15:05:40;24.20;83.20
39899;DHT22;25571;47.876;10.642;2022-07-23T15:08:05;24.20;82.20
39899;DHT22;25571;47.876;10.642;2022-07-23T15:10:31;24.30;82.00
39899;DHT22;25571;47.876;10.642;2022-07-23T15:12:56;24.30;80.20
39899;DHT22;25571;47.876;10.642;2022-07-23T15:15:21;24.40;80.60
39899;DHT22;25571;47.876;10.642;2022-07-23T15:17:47;24.40;80.90
39899;DHT22;25571;47.876;10.642;2022-07-23T15:20:12;24.50;79.70
39899;DHT22;25571;47.876;10.642;2022-07-23T15:22:38;24.50;81.10
39899;DHT22;25571;47.876;10.642;2022-07-23T15:25:04;24.50;81.10
39899;DHT22;25571;47.876;10.642;2022-07-23T15:27:30;24.50;81.50
39899;DHT22;25571;47.876;10.642;2022-07-23T15:29:55;24.60;81.50
39899;DHT22;25571;47.876;10.642;2022-07-23T15:32:20;24.60;82.10
39899;DHT22;25571;47.876;10.642;2022-07-23T15:34:46;24.70;81.70